sensor_id;sensor_type;location;lat;lon;timestamp;temperature;humidity
42135;DHT22;28312;43.460;11.810;2023-06-19T00:00:11;17.70;61.90
42135;DHT22;28312;43.460;11.810;2023-06-19T00:04:20;17.60;62.00
42135;DHT22;28312;43.460;11.810;2023-06-19T00:08:24;17.60;62.10
42135;DHT22;28312;43.460;11.810;2023-06-19T00:12:27;17.60;62.10
42135;DHT22;28312;43.460;11.810;2023-06-19T00:16:32;17.50;62.20
42135;DHT22;28312;43.460;11.810;2023-06-19T00:20:35;17.40;62.30
42135;DHT22;28312;43.460;11.810;2023-06-19T00:24:39;17.30;62.40
42135;DHT22;28312;43.460;11.810;2023-06-19T00:28:43;17.30;62.50
42135;DHT22;28312;43.460;11.810;2023-06-19T00:32:48;17.30;62.50
42135;DHT22;28312;43.460;11.810;2023-06-19T00:36:53;17.20;62.60
42135;DHT22;28312;43.460;11.810;2023-06-19T00:41:00;17.20;62.70
42135;DHT22;28312;43.460;11.810;2023-06-19T00:45:05;17.20;62.70
42135;DHT22;28312;43.460;11.810;2023-06-19T00:49:09;17.20;62.70
42135;DHT22;28312;43.460;11.810;2023-06-19T00:53:13;17.10;62.80
42135;DHT22;28312;43.460;11.810;2023-06-19T00:57:16;17.10;62.90
42135;DHT22;28312;43.460;11.810;2023-06-19T01:01:21;17.10;62.90
42135;DHT22;28312;43.460;11.810;2023-06-19T01:05:27;17.10;63.00
42135;DHT22;28312;43.460;11.810;2023-06-19T01:09:35;16.90;63.10
42135;DHT22;28312;43.460;11.810;2023-06-19T01:13:53;16.90;63.30
42135;DHT22;28312;43.460;11.810;2023-06-19T01:18:02;16.90;63.30
42135;DHT22;28312;43.460;11.810;2023-06-19T01:22:06;16.80;63.30
42135;DHT22;28312;43.460;11.810;2023-06-19T01:26:11;16.80;63.30
42135;DHT22;28312;43.460;11.810;2023-06-19T01:30:15;16.70;63.50
42135;DHT22;28312;43.460;11.810;2023-06-19T01:34:20;16.60;63.50
42135;DHT22;28312;43.460;11.810;2023-06-19T01:38:28;16.60;63.60
42135;DHT22;28312;43.460;11.810;2023-06-19T01:42:34;16.50;63.70
42135;DHT22;28312;43.460;11.810;2023-06-19T01:46:38;16.40;63.80
42135;DHT22;28312;43.460;11.810;2023-06-19T01:50:47;16.40;63.70
42135;DHT22;28312;43.460;11.810;2023-06-19T01:54:51;16.40;63.80
42135;DHT22;28312;43.460;11.810;2023-06-19T01:58:56;16.40;63.80
42135;DHT22;28312;43.460;11.810;2023-06-19T02:03:00;16.40;63.80
42135;DHT22;28312;43.460;11.810;2023-06-19T02:07:03;16.30;63.90
42135;DHT22;28312;43.460;11.810;2023-06-19T02:11:07;16.20;64.10
42135;DHT22;28312;43.460;11.810;2023-06-19T02:15:11;16.20;64.20
42135;DHT22;28312;43.460;11.810;2023-06-19T02:19:15;16.20;64.20
42135;DHT22;28312;43.460;11.810;2023-06-19T02:23:19;16.20;64.30
42135;DHT22;28312;43.460;11.810;2023-06-19T02:27:22;16.10;64.30
42135;DHT22;28312;43.460;11.810;2023-06-19T02:31:28;16.10;64.30
42135;DHT22;28312;43.460;11.810;2023-06-19T02:35:33;16.00;64.40
42135;DHT22;28312;43.460;11.810;2023-06-19T02:39:36;16.00;64.50
42135;DHT22;28312;43.460;11.810;2023-06-19T02:43:43;16.00;64.50
42135;DHT22;28312;43.460;11.810;2023-06-19T02:47:46;16.00;64.50
42135;DHT22;28312;43.460;11.810;2023-06-19T02:51:50;16.00;64.60
42135;DHT22;28312;43.460;11.810;2023-06-19T02:55:56;15.90;64.60
42135;DHT22;28312;43.460;11.810;2023-06-19T02:59:59;15.90;64.70
42135;DHT22;28312;43.460;11.810;2023-06-19T03:04:04;15.80;64.90
42135;DHT22;28312;43.460;11.810;2023-06-19T03:08:07;15.80;64.90
42135;DHT22;28312;43.460;11.810;2023-06-19T03:12:11;15.80;65.00
42135;DHT22;28312;43.460;11.810;2023-06-19T03:16:17;15.80;65.20
42135;DHT22;28312;43.460;11.810;2023-06-19T03:20:21;15.80;65.20
42135;DHT22;28312;43.460;11.810;2023-06-19T03:24:31;15.70;65.20
42135;DHT22;28312;43.460;11.810;2023-06-19T03:28:49;15.70;65.20
42135;DHT22;28312;43.460;11.810;2023-06-19T03:32:54;15.80;65.30
42135;DHT22;28312;43.460;11.810;2023-06-19T03:37:13;15.80;65.40
42135;DHT22;28312;43.460;11.810;2023-06-19T03:41:18;15.80;65.60
42135;DHT22;28312;43.460;11.810;2023-06-19T03:45:22;15.90;65.60
42135;DHT22;28312;43.460;11.810;2023-06-19T03:49:26;16.00;65.70
42135;DHT22;28312;43.460;11.810;2023-06-19T03:53:29;16.00;65.80
42135;DHT22;28312;43.460;11.810;2023-06-19T03:57:33;16.10;65.80
42135;DHT22;28312;43.460;11.810;2023-06-19T04:01:37;16.20;65.90
42135;DHT22;28312;43.460;11.810;2023-06-19T04:05:41;16.20;66.00
42135;DHT22;28312;43.460;11.810;2023-06-19T04:09:47;16.30;66.00
42135;DHT22;28312;43.460;11.810;2023-06-19T04:13:50;16.40;66.10
42135;DHT22;28312;43.460;11.810;2023-06-19T04:17:54;16.50;66.20
42135;DHT22;28312;43.460;11.810;2023-06-19T04:21:57;16.60;66.20
42135;DHT22;28312;43.460;11.810;2023-06-19T04:26:02;16.70;66.20
42135;DHT22;28312;43.460;11.810;2023-06-19T04:30:06;16.70;66.30
42135;DHT22;28312;43.460;11.810;2023-06-19T04:34:10;16.80;66.40
42135;DHT22;28312;43.460;11.810;2023-06-19T04:38:14;17.00;66.40
42135;DHT22;28312;43.460;11.810;2023-06-19T04:42:17;17.10;66.50
42135;DHT22;28312;43.460;11.810;2023-06-19T04:46:24;17.20;66.60
42135;DHT22;28312;43.460;11.810;2023-06-19T04:50:27;17.30;66.70
42135;DHT22;28312;43.460;11.810;2023-06-19T04:54:31;17.50;66.70
42135;DHT22;28312;43.460;11.810;2023-06-19T04:58:37;17.70;66.70
42135;DHT22;28312;43.460;11.810;2023-06-19T05:02:48;17.80;66.70
42135;DHT22;28312;43.460;11.810;2023-06-19T05:06:51;18.00;66.70
42135;DHT22;28312;43.460;11.810;2023-06-19T05:10:55;18.20;66.90
42135;DHT22;28312;43.460;11.810;2023-06-19T05:15:00;18.40;66.90
42135;DHT22;28312;43.460;11.810;2023-06-19T05:19:05;18.60;66.90
42135;DHT22;28312;43.460;11.810;2023-06-19T05:23:08;18.80;66.80
42135;DHT22;28312;43.460;11.810;2023-06-19T05:27:12;19.10;66.60
42135;DHT22;28312;43.460;11.810;2023-06-19T05:31:16;19.30;66.40
42135;DHT22;28312;43.460;11.810;2023-06-19T05:35:21;19.50;66.20
42135;DHT22;28312;43.460;11.810;2023-06-19T05:39:25;19.60;66.10
42135;DHT22;28312;43.460;11.810;2023-06-19T05:43:28;19.70;65.90
42135;DHT22;28312;43.460;11.810;2023-06-19T05:47:32;19.90;65.70
42135;DHT22;28312;43.460;11.810;2023-06-19T05:51:35;19.80;65.60
42135;DHT22;28312;43.460;11.810;2023-06-19T05:55:39;19.90;65.50
42135;DHT22;28312;43.460;11.810;2023-06-19T05:59:42;19.90;65.50
42135;DHT22;28312;43.460;11.810;2023-06-19T06:03:46;19.90;65.60
42135;DHT22;28312;43.460;11.810;2023-06-19T06:07:50;19.90;65.70
42135;DHT22;28312;43.460;11.810;2023-06-19T06:11:53;20.00;65.80
42135;DHT22;28312;43.460;11.810;2023-06-19T06:15:57;20.00;65.80
42135;DHT22;28312;43.460;11.810;2023-06-19T06:20:00;20.00;66.00
42135;DHT22;28312;43.460;11.810;2023-06-19T06:24:04;20.00;66.10
42135;DHT22;28312;43.460;11.810;2023-06-19T06:28:07;20.10;66.10
42135;DHT22;28312;43.460;11.810;2023-06-19T06:32:11;20.10;66.20
42135;DHT22;28312;43.460;11.810;2023-06-19T06:36:15;20.20;66.30
42135;DHT22;28312;43.460;11.810;2023-06-19T06:40:37;20.20;66.40
42135;DHT22;28312;43.460;11.810;2023-06-19T06:44:40;20.20;66.60
42135;DHT22;28312;43.460;11.810;2023-06-19T06:48:44;20.40;66.60
42135;DHT22;28312;43.460;11.810;2023-06-19T06:52:48;20.60;66.80
42135;DHT22;28312;43.460;11.810;2023-06-19T06:56:52;20.80;67.20
42135;DHT22;28312;43.460;11.810;2023-06-19T07:00:59;21.20;67.00
42135;DHT22;28312;43.460;11.810;2023-06-19T07:05:06;21.60;66.50
42135;DHT22;28312;43.460;11.810;2023-06-19T07:09:10;21.80;66.30
42135;DHT22;28312;43.460;11.810;2023-06-19T07:13:13;22.00;65.80
42135;DHT22;28312;43.460;11.810;2023-06-19T07:17:16;22.10;65.50
42135;DHT22;28312;43.460;11.810;2023-06-19T07:21:23;22.20;65.50
42135;DHT22;28312;43.460;11.810;2023-06-19T07:25:27;22.20;65.40
42135;DHT22;28312;43.460;11.810;2023-06-19T07:29:30;22.40;65.30
42135;DHT22;28312;43.460;11.810;2023-06-19T07:33:34;22.40;65.30
42135;DHT22;28312;43.460;11.810;2023-06-19T07:37:38;22.60;65.30
42135;DHT22;28312;43.460;11.810;2023-06-19T07:41:41;22.70;65.40
42135;DHT22;28312;43.460;11.810;2023-06-19T07:45:49;23.00;65.50
42135;DHT22;28312;43.460;11.810;2023-06-19T07:49:52;23.20;65.00
42135;DHT22;28312;43.460;11.810;2023-06-19T07:53:56;23.30;64.60
42135;DHT22;28312;43.460;11.810;2023-06-19T07:57:59;23.40;65.00
42135;DHT22;28312;43.460;11.810;2023-06-19T08:02:03;23.70;65.10
42135;DHT22;28312;43.460;11.810;2023-06-19T08:06:08;24.10;64.70
42135;DHT22;28312;43.460;11.810;2023-06-19T08:10:11;24.40;64.40
42135;DHT22;28312;43.460;11.810;2023-06-19T08:14:16;24.60;64.10
42135;DHT22;28312;43.460;11.810;2023-06-19T08:18:20;24.60;63.80
42135;DHT22;28312;43.460;11.810;2023-06-19T08:22:24;24.60;63.60
42135;DHT22;28312;43.460;11.810;2023-06-19T08:26:28;24.70;63.80
42135;DHT22;28312;43.460;11.810;2023-06-19T08:30:31;24.80;63.80
42135;DHT22;28312;43.460;11.810;2023-06-19T08:34:35;24.90;63.50
42135;DHT22;28312;43.460;11.810;2023-06-19T08:38:39;24.90;63.30
42135;DHT22;28312;43.460;11.810;2023-06-19T08:42:43;24.80;63.20
42135;DHT22;28312;43.460;11.810;2023-06-19T08:46:47;24.90;63.40
42135;DHT22;28312;43.460;11.810;2023-06-19T08:50:51;24.90;63.20
42135;DHT22;28312;43.460;11.810;2023-06-19T08:54:55;24.90;63.30
42135;DHT22;28312;43.460;11.810;2023-06-19T08:59:09;25.00;63.50
42135;DHT22;28312;43.460;11.810;2023-06-19T09:03:20;25.20;63.60
42135;DHT22;28312;43.460;11.810;2023-06-19T09:07:24;25.50;63.30
42135;DHT22;28312;43.460;11.810;2023-06-19T09:11:28;25.70;62.90
42135;DHT22;28312;43.460;11.810;2023-06-19T09:15:36;25.80;62.70
42135;DHT22;28312;43.460;11.810;2023-06-19T09:19:51;26.10;62.70
42135;DHT22;28312;43.460;11.810;2023-06-19T09:24:01;26.30;62.50
42135;DHT22;28312;43.460;11.810;2023-06-19T09:28:18;26.60;62.40
42135;DHT22;28312;43.460;11.810;2023-06-19T09:32:24;26.80;62.20
42135;DHT22;28312;43.460;11.810;2023-06-19T09:36:31;27.10;61.80
42135;DHT22;28312;43.460;11.810;2023-06-19T09:40:36;27.10;61.50
42135;DHT22;28312;43.460;11.810;2023-06-19T09:44:42;27.30;61.60
42135;DHT22;28312;43.460;11.810;2023-06-19T09:48:50;27.50;61.40
42135;DHT22;28312;43.460;11.810;2023-06-19T09:52:58;27.60;61.30
42135;DHT22;28312;43.460;11.810;2023-06-19T09:57:02;27.90;61.10
42135;DHT22;28312;43.460;11.810;2023-06-19T10:01:06;28.10;60.80
42135;DHT22;28312;43.460;11.810;2023-06-19T10:05:11;28.10;60.40
42135;DHT22;28312;43.460;11.810;2023-06-19T10:09:18;28.20;60.20
42135;DHT22;28312;43.460;11.810;2023-06-19T10:13:21;28.40;60.20
42135;DHT22;28312;43.460;11.810;2023-06-19T10:17:29;28.60;60.20
42135;DHT22;28312;43.460;11.810;2023-06-19T10:21:48;28.80;59.90
42135;DHT22;28312;43.460;11.810;2023-06-19T10:29:59;29.10;59.80
42135;DHT22;28312;43.460;11.810;2023-06-19T10:34:17;29.40;59.50
42135;DHT22;28312;43.460;11.810;2023-06-19T10:38:21;29.50;59.10
42135;DHT22;28312;43.460;11.810;2023-06-19T10:42:25;29.60;58.60
42135;DHT22;28312;43.460;11.810;2023-06-19T10:46:33;29.60;58.10
42135;DHT22;28312;43.460;11.810;2023-06-19T10:50:42;29.60;58.10
42135;DHT22;28312;43.460;11.810;2023-06-19T10:54:46;29.70;58.20
42135;DHT22;28312;43.460;11.810;2023-06-19T10:59:04;29.90;57.70
42135;DHT22;28312;43.460;11.810;2023-06-19T11:03:19;30.00;57.80
42135;DHT22;28312;43.460;11.810;2023-06-19T11:07:23;30.10;57.80
42135;DHT22;28312;43.460;11.810;2023-06-19T11:15:38;30.20;56.90
42135;DHT22;28312;43.460;11.810;2023-06-19T11:19:42;30.20;57.20
42135;DHT22;28312;43.460;11.810;2023-06-19T11:23:48;30.40;57.20
42135;DHT22;28312;43.460;11.810;2023-06-19T11:27:51;30.50;56.90
42135;DHT22;28312;43.460;11.810;2023-06-19T11:32:34;30.60;56.60
42135;DHT22;28312;43.460;11.810;2023-06-19T11:36:48;30.70;56.40
42135;DHT22;28312;43.460;11.810;2023-06-19T11:40:56;31.00;56.60
42135;DHT22;28312;43.460;11.810;2023-06-19T11:45:05;31.10;55.80
42135;DHT22;28312;43.460;11.810;2023-06-19T11:49:12;31.10;54.70
42135;DHT22;28312;43.460;11.810;2023-06-19T11:53:18;31.10;54.60
42135;DHT22;28312;43.460;11.810;2023-06-19T11:57:22;31.10;55.00
42135;DHT22;28312;43.460;11.810;2023-06-19T12:01:26;31.30;55.60
42135;DHT22;28312;43.460;11.810;2023-06-19T12:05:30;31.60;55.70
42135;DHT22;28312;43.460;11.810;2023-06-19T12:09:34;31.90;54.90
42135;DHT22;28312;43.460;11.810;2023-06-19T12:13:37;31.90;54.20
42135;DHT22;28312;43.460;11.810;2023-06-19T12:17:41;31.90;54.40
42135;DHT22;28312;43.460;11.810;2023-06-19T12:21:44;32.10;54.40
42135;DHT22;28312;43.460;11.810;2023-06-19T12:25:48;32.20;53.80
42135;DHT22;28312;43.460;11.810;2023-06-19T12:29:51;32.20;53.60
42135;DHT22;28312;43.460;11.810;2023-06-19T12:33:54;32.20;53.00
42135;DHT22;28312;43.460;11.810;2023-06-19T12:38:02;32.10;53.10
42135;DHT22;28312;43.460;11.810;2023-06-19T12:42:09;32.10;53.00
42135;DHT22;28312;43.460;11.810;2023-06-19T12:46:15;32.20;53.20
42135;DHT22;28312;43.460;11.810;2023-06-19T12:50:18;32.40;53.10
42135;DHT22;28312;43.460;11.810;2023-06-19T12:54:22;32.50;53.00
42135;DHT22;28312;43.460;11.810;2023-06-19T12:58:26;32.50;52.70
42135;DHT22;28312;43.460;11.810;2023-06-19T13:02:30;32.60;52.70
42135;DHT22;28312;43.460;11.810;2023-06-19T13:06:36;32.80;52.50
42135;DHT22;28312;43.460;11.810;2023-06-19T13:10:39;32.90;52.20
42135;DHT22;28312;43.460;11.810;2023-06-19T13:14:43;32.90;51.80
42135;DHT22;28312;43.460;11.810;2023-06-19T13:18:47;32.80;51.70
42135;DHT22;28312;43.460;11.810;2023-06-19T13:22:50;32.70;51.60
42135;DHT22;28312;43.460;11.810;2023-06-19T13:26:55;32.70;51.40
42135;DHT22;28312;43.460;11.810;2023-06-19T13:30:59;32.80;51.10
42135;DHT22;28312;43.460;11.810;2023-06-19T13:35:04;32.90;51.00
42135;DHT22;28312;43.460;11.810;2023-06-19T13:39:18;32.90;50.40
42135;DHT22;28312;43.460;11.810;2023-06-19T13:43:23;32.80;49.90
42135;DHT22;28312;43.460;11.810;2023-06-19T13:47:26;32.60;49.40
42135;DHT22;28312;43.460;11.810;2023-06-19T13:51:30;32.50;49.50
42135;DHT22;28312;43.460;11.810;2023-06-19T13:55:34;32.50;49.50
42135;DHT22;28312;43.460;11.810;2023-06-19T13:59:38;32.30;49.20
42135;DHT22;28312;43.460;11.810;2023-06-19T14:03:44;32.10;49.10
42135;DHT22;28312;43.460;11.810;2023-06-19T14:07:47;31.90;49.10
42135;DHT22;28312;43.460;11.810;2023-06-19T14:11:51;31.80;49.10
42135;DHT22;28312;43.460;11.810;2023-06-19T14:15:57;31.60;49.00
42135;DHT22;28312;43.460;11.810;2023-06-19T14:20:00;31.50;48.90
42135;DHT22;28312;43.460;11.810;2023-06-19T14:24:04;31.50;49.40
42135;DHT22;28312;43.460;11.810;2023-06-19T14:28:08;31.60;49.30
42135;DHT22;28312;43.460;11.810;2023-06-19T14:32:11;31.70;49.20
42135;DHT22;28312;43.460;11.810;2023-06-19T14:36:15;31.70;49.40
42135;DHT22;28312;43.460;11.810;2023-06-19T14:40:19;31.80;49.40
42135;DHT22;28312;43.460;11.810;2023-06-19T14:44:22;31.90;49.30
42135;DHT22;28312;43.460;11.810;2023-06-19T14:48:26;31.80;49.00
42135;DHT22;28312;43.460;11.810;2023-06-19T14:52:30;31.90;48.80
42135;DHT22;28312;43.460;11.810;2023-06-19T14:56:34;31.90;48.90
42135;DHT22;28312;43.460;11.810;2023-06-19T15:00:38;32.00;48.70
42135;DHT22;28312;43.460;11.810;2023-06-19T15:04:41;32.10;48.60
42135;DHT22;28312;43.460;11.810;2023-06-19T15:09:03;32.30;48.40
42135;DHT22;28312;43.460;11.810;2023-06-19T15:13:07;32.20;48.10
42135;DHT22;28312;43.460;11.810;2023-06-19T15:17:14;32.10;47.70
42135;DHT22;28312;43.460;11.810;2023-06-19T15:21:18;32.00;47.60
42135;DHT22;28312;43.460;11.810;2023-06-19T15:25:21;31.90;47.60
42135;DHT22;28312;43.460;11.810;2023-06-19T15:29:25;31.70;47.50
42135;DHT22;28312;43.460;11.810;2023-06-19T15:33:29;31.70;47.40
42135;DHT22;28312;43.460;11.810;2023-06-19T15:37:32;31.80;47.30
42135;DHT22;28312;43.460;11.810;2023-06-19T15:41:35;31.90;47.00
42135;DHT22;28312;43.460;11.810;2023-06-19T15:45:40;32.00;46.90
42135;DHT22;28312;43.460;11.810;2023-06-19T15:49:43;31.90;46.70
42135;DHT22;28312;43.460;11.810;2023-06-19T15:53:46;31.90;46.60
42135;DHT22;28312;43.460;11.810;2023-06-19T15:57:50;31.90;46.20
42135;DHT22;28312;43.460;11.810;2023-06-19T16:01:54;31.80;46.10
42135;DHT22;28312;43.460;11.810;2023-06-19T16:05:57;31.80;46.20
42135;DHT22;28312;43.460;11.810;2023-06-19T16:10:10;31.70;45.90
42135;DHT22;28312;43.460;11.810;2023-06-19T16:14:13;31.60;46.00
42135;DHT22;28312;43.460;11.810;2023-06-19T16:18:19;31.50;45.70
42135;DHT22;28312;43.460;11.810;2023-06-19T16:22:22;31.30;45.80
42135;DHT22;28312;43.460;11.810;2023-06-19T16:26:26;31.30;45.90
42135;DHT22;28312;43.460;11.810;2023-06-19T16:30:29;31.10;45.80
42135;DHT22;28312;43.460;11.810;2023-06-19T16:34:34;31.10;45.90
42135;DHT22;28312;43.460;11.810;2023-06-19T16:38:37;31.00;45.80
42135;DHT22;28312;43.460;11.810;2023-06-19T16:42:41;30.90;45.80
42135;DHT22;28312;43.460;11.810;2023-06-19T16:46:44;30.80;45.80
42135;DHT22;28312;43.460;11.810;2023-06-19T16:50:48;30.70;46.00
42135;DHT22;28312;43.460;11.810;2023-06-19T16:54:52;30.60;46.10
42135;DHT22;28312;43.460;11.810;2023-06-19T16:58:55;30.60;46.30
42135;DHT22;28312;43.460;11.810;2023-06-19T17:02:59;30.50;46.30
42135;DHT22;28312;43.460;11.810;2023-06-19T17:07:04;30.50;46.50
42135;DHT22;28312;43.460;11.810;2023-06-19T17:11:07;30.50;46.50
42135;DHT22;28312;43.460;11.810;2023-06-19T17:15:11;30.40;46.60
42135;DHT22;28312;43.460;11.810;2023-06-19T17:19:14;30.20;46.70
42135;DHT22;28312;43.460;11.810;2023-06-19T17:23:18;30.20;46.80
42135;DHT22;28312;43.460;11.810;2023-06-19T17:27:21;30.10;46.70
42135;DHT22;28312;43.460;11.810;2023-06-19T17:31:25;30.00;46.70
42135;DHT22;28312;43.460;11.810;2023-06-19T17:35:29;29.90;46.80
42135;DHT22;28312;43.460;11.810;2023-06-19T17:39:33;29.70;46.70
42135;DHT22;28312;43.460;11.810;2023-06-19T17:43:36;29.60;46.90
42135;DHT22;28312;43.460;11.810;2023-06-19T17:47:39;29.60;47.00
42135;DHT22;28312;43.460;11.810;2023-06-19T17:51:43;29.50;47.00
42135;DHT22;28312;43.460;11.810;2023-06-19T17:55:46;29.40;47.10
42135;DHT22;28312;43.460;11.810;2023-06-19T17:59:50;29.20;47.10
42135;DHT22;28312;43.460;11.810;2023-06-19T18:03:53;29.00;47.20
42135;DHT22;28312;43.460;11.810;2023-06-19T18:07:57;28.80;47.30
42135;DHT22;28312;43.460;11.810;2023-06-19T18:12:00;28.60;47.40
42135;DHT22;28312;43.460;11.810;2023-06-19T18:16:04;28.50;47.50
42135;DHT22;28312;43.460;11.810;2023-06-19T18:20:15;28.30;47.60
42135;DHT22;28312;43.460;11.810;2023-06-19T18:24:18;28.10;47.50
42135;DHT22;28312;43.460;11.810;2023-06-19T18:28:22;27.80;47.40
42135;DHT22;28312;43.460;11.810;2023-06-19T18:32:27;27.60;47.60
42135;DHT22;28312;43.460;11.810;2023-06-19T18:36:31;27.30;47.80
42135;DHT22;28312;43.460;11.810;2023-06-19T18:40:34;27.10;47.70
42135;DHT22;28312;43.460;11.810;2023-06-19T18:44:37;26.90;47.90
42135;DHT22;28312;43.460;11.810;2023-06-19T18:48:41;26.70;48.00
42135;DHT22;28312;43.460;11.810;2023-06-19T18:52:45;26.60;48.10
42135;DHT22;28312;43.460;11.810;2023-06-19T18:56:49;26.40;48.20
42135;DHT22;28312;43.460;11.810;2023-06-19T19:00:52;26.20;48.30
42135;DHT22;28312;43.460;11.810;2023-06-19T19:04:56;26.10;48.30
42135;DHT22;28312;43.460;11.810;2023-06-19T19:09:00;26.10;48.40
42135;DHT22;28312;43.460;11.810;2023-06-19T19:13:03;25.90;48.40
42135;DHT22;28312;43.460;11.810;2023-06-19T19:17:07;25.90;48.50
42135;DHT22;28312;43.460;11.810;2023-06-19T19:21:10;25.70;48.50
42135;DHT22;28312;43.460;11.810;2023-06-19T19:25:14;25.70;48.50
42135;DHT22;28312;43.460;11.810;2023-06-19T19:29:17;25.60;48.60
42135;DHT22;28312;43.460;11.810;2023-06-19T19:33:21;25.40;48.70
42135;DHT22;28312;43.460;11.810;2023-06-19T19:37:28;25.20;48.80
42135;DHT22;28312;43.460;11.810;2023-06-19T19:41:32;25.00;49.00
42135;DHT22;28312;43.460;11.810;2023-06-19T19:45:36;24.70;49.10
42135;DHT22;28312;43.460;11.810;2023-06-19T19:49:39;24.50;49.30
42135;DHT22;28312;43.460;11.810;2023-06-19T19:53:43;24.30;49.50
42135;DHT22;28312;43.460;11.810;2023-06-19T19:57:46;24.10;49.50
42135;DHT22;28312;43.460;11.810;2023-06-19T20:01:50;23.80;49.70
42135;DHT22;28312;43.460;11.810;2023-06-19T20:05:54;23.70;49.90
42135;DHT22;28312;43.460;11.810;2023-06-19T20:09:58;23.50;50.10
42135;DHT22;28312;43.460;11.810;2023-06-19T20:14:03;23.10;50.30
42135;DHT22;28312;43.460;11.810;2023-06-19T20:18:07;23.00;50.50
42135;DHT22;28312;43.460;11.810;2023-06-19T20:22:10;22.90;50.60
42135;DHT22;28312;43.460;11.810;2023-06-19T20:26:14;22.80;50.70
42135;DHT22;28312;43.460;11.810;2023-06-19T20:30:17;22.60;51.00
42135;DHT22;28312;43.460;11.810;2023-06-19T20:34:21;22.40;51.20
42135;DHT22;28312;43.460;11.810;2023-06-19T20:38:25;22.20;51.50
42135;DHT22;28312;43.460;11.810;2023-06-19T20:42:28;22.00;51.80
42135;DHT22;28312;43.460;11.810;2023-06-19T20:46:31;21.80;51.80
42135;DHT22;28312;43.460;11.810;2023-06-19T20:50:35;21.60;52.10
42135;DHT22;28312;43.460;11.810;2023-06-19T20:54:39;21.40;52.30
42135;DHT22;28312;43.460;11.810;2023-06-19T20:58:42;21.40;52.40
42135;DHT22;28312;43.460;11.810;2023-06-19T21:02:46;21.30;52.40
42135;DHT22;28312;43.460;11.810;2023-06-19T21:06:50;21.20;52.60
42135;DHT22;28312;43.460;11.810;2023-06-19T21:10:54;21.10;52.80
42135;DHT22;28312;43.460;11.810;2023-06-19T21:14:58;20.90;53.00
42135;DHT22;28312;43.460;11.810;2023-06-19T21:19:02;20.80;53.10
42135;DHT22;28312;43.460;11.810;2023-06-19T21:23:05;20.70;53.30
42135;DHT22;28312;43.460;11.810;2023-06-19T21:27:09;20.70;53.40
42135;DHT22;28312;43.460;11.810;2023-06-19T21:31:12;20.60;53.60
42135;DHT22;28312;43.460;11.810;2023-06-19T21:35:18;20.50;53.80
42135;DHT22;28312;43.460;11.810;2023-06-19T21:39:22;20.40;53.90
42135;DHT22;28312;43.460;11.810;2023-06-19T21:43:25;20.30;54.00
42135;DHT22;28312;43.460;11.810;2023-06-19T21:47:29;20.30;53.90
42135;DHT22;28312;43.460;11.810;2023-06-19T21:51:35;20.20;54.10
42135;DHT22;28312;43.460;11.810;2023-06-19T21:55:38;20.10;54.20
42135;DHT22;28312;43.460;11.810;2023-06-19T21:59:42;20.10;54.20
42135;DHT22;28312;43.460;11.810;2023-06-19T22:03:45;20.00;54.20
42135;DHT22;28312;43.460;11.810;2023-06-19T22:07:49;19.80;54.50
42135;DHT22;28312;43.460;11.810;2023-06-19T22:11:52;19.70;54.80
42135;DHT22;28312;43.460;11.810;2023-06-19T22:15:57;19.60;55.00
42135;DHT22;28312;43.460;11.810;2023-06-19T22:20:01;19.50;55.10
42135;DHT22;28312;43.460;11.810;2023-06-19T22:24:05;19.40;55.20
42135;DHT22;28312;43.460;11.810;2023-06-19T22:28:09;19.50;55.20
42135;DHT22;28312;43.460;11.810;2023-06-19T22:32:12;19.40;55.30
42135;DHT22;28312;43.460;11.810;2023-06-19T22:36:16;19.40;55.40
42135;DHT22;28312;43.460;11.810;2023-06-19T22:40:19;19.20;55.60
42135;DHT22;28312;43.460;11.810;2023-06-19T22:44:22;19.20;55.70
42135;DHT22;28312;43.460;11.810;2023-06-19T22:48:26;19.10;55.80
42135;DHT22;28312;43.460;11.810;2023-06-19T22:52:29;19.00;55.90
42135;DHT22;28312;43.460;11.810;2023-06-19T22:56:32;18.80;56.10
42135;DHT22;28312;43.460;11.810;2023-06-19T23:00:39;18.80;56.20
42135;DHT22;28312;43.460;11.810;2023-06-19T23:04:43;18.70;56.30
42135;DHT22;28312;43.460;11.810;2023-06-19T23:08:47;18.60;56.40
42135;DHT22;28312;43.460;11.810;2023-06-19T23:12:52;18.60;56.50
42135;DHT22;28312;43.460;11.810;2023-06-19T23:16:55;18.60;56.50
42135;DHT22;28312;43.460;11.810;2023-06-19T23:20:59;18.50;56.60
42135;DHT22;28312;43.460;11.810;2023-06-19T23:25:03;18.40;56.70
42135;DHT22;28312;43.460;11.810;2023-06-19T23:29:07;18.30;56.80
42135;DHT22;28312;43.460;11.810;2023-06-19T23:33:12;18.20;56.90
42135;DHT22;28312;43.460;11.810;2023-06-19T23:37:16;18.10;57.10
42135;DHT22;28312;43.460;11.810;2023-06-19T23:41:22;18.10;57.40
42135;DHT22;28312;43.460;11.810;2023-06-19T23:45:25;18.00;57.40
42135;DHT22;28312;43.460;11.810;2023-06-19T23:49:29;18.00;57.50
42135;DHT22;28312;43.460;11.810;2023-06-19T23:53:32;17.90;57.50
42135;DHT22;28312;43.460;11.810;2023-06-19T23:57:36;17.90;57.50
